Time;durP1;ratioP1;P1;durP2;ratioP2;P2;SDS_P1;SDS_P2;PMS_P1;PMS_P2;Temp;Humidity;BMP_temperature;BMP_pressure;BME280_temperature;BME280_humidity;BME280_pressure;Samples;Min_cycle;Max_cycle;Signal;HPM_P1;HPM_P2
2022/06/08 00:01:14;;;;;;;;;;;;;;;;;;5124165;27;19916;-56
2022/06/08 00:03:54;;;;;;;;;;;;;;;;;;5124401;27;19912;-55
2022/06/08 00:06:34;;;;;;;;;;;;;;;;;;5123434;27;19919;-55
2022/06/08 00:09:14;;;;;;;;;;;;;;;;;;5119183;27;19912;-55
2022/06/08 00:11:54;;;;;;;;;;;;;;;;;;5124749;27;20099;-55
2022/06/08 00:14:33;;;;;;;;;;;;;;;;;;5083737;28;19913;-55
2022/06/08 00:17:13;;;;;;;;;;;;;;;;;;5122779;27;20309;-55
2022/06/08 00:19:54;;;;;;;;;;;;;;;;;;5114051;27;19912;-56
2022/06/08 00:22:33;;;;;;;;;;;;;;;;;;5124791;27;19918;-55
2022/06/08 00:25:13;;;;;;;;;;;;;;;;;;5122995;27;19911;-55
2022/06/08 00:27:53;;;;;;;;;;;;;;;;;;5103475;27;20107;-55
2022/06/08 00:30:33;;;;;;;;;;;;;;;;;;5141993;22;20320;-53
2022/06/08 00:33:12;;;;;;;;;;;;;;;;;;5124981;27;19912;-55
2022/06/08 00:35:52;;;;;;;;;;;;;;;;;;5105810;27;19912;-55
2022/06/08 00:38:32;;;;;;;;;;;;;;;;;;5124270;27;19912;-55
2022/06/08 00:41:12;;;;;;;;;;;;;;;;;;5089725;27;19913;-55
2022/06/08 00:43:52;;;;;;;;;;;;;;;;;;5103864;27;19973;-56
2022/06/08 00:46:31;;;;;;;;;;;;;;;;;;5123073;27;19922;-55
2022/06/08 00:49:11;;;;;;;;;;;;;;;;;;5096153;27;19969;-55
2022/06/08 00:51:51;;;;;;;;;;;;;;;;;;5113172;27;19927;-56
2022/06/08 00:54:31;;;;;;;;;;;;;;;;;;5107954;27;19916;-56
2022/06/08 00:57:11;;;;;;;;;;;;;;;;;;5095857;27;19934;-55
2022/06/08 00:59:51;;;;;;;;;;;;;;;;;;5076969;28;19921;-55
2022/06/08 01:02:31;;;;;;;;;;;;;;;;;;5102374;27;19916;-56
2022/06/08 01:05:10;;;;;;;;;;;;;;;;;;5122802;27;19919;-55
2022/06/08 01:07:50;;;;;;;;;;;;;;;;;;5116980;27;20377;-55
2022/06/08 01:10:30;;;;;;;;;;;;;;;;;;5098730;27;19923;-55
2022/06/08 01:13:10;;;;;;;;;;;;;;;;;;5118150;27;20107;-55
2022/06/08 01:15:50;;;;;;;;;;;;;;;;;;5111519;27;19920;-55
2022/06/08 01:18:31;;;;;;;;;;;;;;;;;;5119981;27;20388;-56
2022/06/08 01:21:11;;;;;;;;;;;;;;;;;;5101519;27;19930;-56
2022/06/08 01:23:51;;;;;;;;;;;;;;;;;;5123537;27;19912;-55
2022/06/08 01:26:31;;;;;;;;;;;;;;;;;;5074078;28;20378;-55
2022/06/08 01:29:10;;;;;;;;;;;;;;;;;;5122565;27;19919;-55
2022/06/08 01:31:50;;;;;;;;;;;;;;;;;;5080927;27;20204;-55
2022/06/08 01:34:30;;;;;;;;;;;;;;;;;;5103234;27;19912;-55
2022/06/08 01:37:10;;;;;;;;;;;;;;;;;;5121412;27;19951;-56
2022/06/08 01:39:50;;;;;;;;;;;;;;;;;;5121718;27;19916;-56
2022/06/08 01:42:29;;;;;;;;;;;;;;;;;;5124878;27;19918;-55
2022/06/08 01:45:33;;;;;;;;;;;;;;;;;;5102765;27;20393;-55
2022/06/08 01:48:11;;;;;;;;;;;;;;;;;;5124377;27;19918;-56
2022/06/08 01:50:51;;;;;;;;;;;;;;;;;;5124754;27;19912;-55
2022/06/08 01:53:31;;;;;;;;;;;;;;;;;;5124366;27;19912;-55
2022/06/08 01:56:11;;;;;;;;;;;;;;;;;;5122608;27;20372;-55
2022/06/08 01:58:51;;;;;;;;;;;;;;;;;;5123971;27;19919;-56
2022/06/08 02:01:31;;;;;;;;;;;;;;;;;;5124476;27;19912;-55
2022/06/08 02:04:14;;;;;;;;;;;;;;;;;;5124513;27;19918;-55
2022/06/08 02:06:53;;;;;;;;;;;;;;;;;;5102719;27;19953;-55
2022/06/08 02:09:33;;;;;;;;;;;;;;;;;;5124472;27;19911;-56
2022/06/08 02:12:13;;;;;;;;;;;;;;;;;;5103974;27;20583;-56
2022/06/08 02:14:56;;;;;;;;;;;;;;;;;;5103621;27;20641;-55
2022/06/08 02:17:37;;;;;;;;;;;;;;;;;;5123878;27;20369;-55
2022/06/08 02:20:16;;;;;;;;;;;;;;;;;;5085603;27;19913;-56
2022/06/08 02:22:56;;;;;;;;;;;;;;;;;;5124320;27;19912;-55
2022/06/08 02:25:36;;;;;;;;;;;;;;;;;;5122957;27;19922;-55
2022/06/08 02:28:15;;;;;;;;;;;;;;;;;;5124132;27;20322;-55
2022/06/08 02:30:55;;;;;;;;;;;;;;;;;;5124364;27;19934;-55
2022/06/08 02:36:31;;;;;;;;;;;;;;;;;;5123165;27;20381;-55
2022/06/08 02:39:11;;;;;;;;;;;;;;;;;;5103494;27;19934;-55
2022/06/08 02:41:50;;;;;;;;;;;;;;;;;;5124308;27;19912;-56
2022/06/08 02:44:30;;;;;;;;;;;;;;;;;;5097875;27;19919;-55
2022/06/08 02:47:10;;;;;;;;;;;;;;;;;;5122619;27;19920;-55
2022/06/08 02:49:52;;;;;;;;;;;;;;;;;;5121451;27;19922;-55
2022/06/08 02:52:31;;;;;;;;;;;;;;;;;;5124481;27;20263;-55
2022/06/08 02:55:13;;;;;;;;;;;;;;;;;;5123233;27;20377;-55
2022/06/08 02:57:53;;;;;;;;;;;;;;;;;;5124241;27;19911;-55
2022/06/08 03:00:32;;;;;;;;;;;;;;;;;;5124287;27;20290;-55
2022/06/08 03:03:12;;;;;;;;;;;;;;;;;;5103673;27;19977;-55
2022/06/08 03:05:52;;;;;;;;;;;;;;;;;;5102399;27;19915;-55
2022/06/08 03:08:32;;;;;;;;;;;;;;;;;;5103879;27;19912;-55
2022/06/08 03:11:12;;;;;;;;;;;;;;;;;;5109568;27;19912;-55
2022/06/08 03:13:52;;;;;;;;;;;;;;;;;;5124400;27;19918;-55
2022/06/08 03:16:31;;;;;;;;;;;;;;;;;;5099805;27;19926;-55
2022/06/08 03:19:11;;;;;;;;;;;;;;;;;;5123597;27;19919;-55
2022/06/08 03:21:54;;;;;;;;;;;;;;;;;;5124199;27;19912;-56
2022/06/08 03:24:36;;;;;;;;;;;;;;;;;;5103772;27;19916;-55
2022/06/08 03:27:15;;;;;;;;;;;;;;;;;;5143602;27;19918;-56
2022/06/08 03:30:00;;;;;;;;;;;;;;;;;;5119762;27;19920;-55
2022/06/08 03:32:46;;;;;;;;;;;;;;;;;;5104271;27;19954;-55
2022/06/08 03:35:26;;;;;;;;;;;;;;;;;;5121198;27;19922;-56
2022/06/08 03:38:07;;;;;;;;;;;;;;;;;;5121051;27;20327;-56
2022/06/08 03:40:47;;;;;;;;;;;;;;;;;;5112959;27;19916;-55
2022/06/08 03:43:29;;;;;;;;;;;;;;;;;;5123488;27;20320;-54
2022/06/08 03:46:09;;;;;;;;;;;;;;;;;;5123166;27;19912;-55
2022/06/08 03:48:51;;;;;;;;;;;;;;;;;;5145134;27;19921;-55
2022/06/08 03:51:30;;;;;;;;;;;;;;;;;;5124726;27;19912;-55
2022/06/08 03:54:10;;;;;;;;;;;;;;;;;;5124548;27;20569;-55
2022/06/08 03:56:52;;;;;;;;;;;;;;;;;;5122534;27;20374;-55
2022/06/08 03:59:34;;;;;;;;;;;;;;;;;;5124310;27;19926;-55
2022/06/08 04:02:14;;;;;;;;;;;;;;;;;;5124349;27;19922;-55
2022/06/08 04:04:55;;;;;;;;;;;;;;;;;;5124677;27;19922;-54
2022/06/08 04:07:35;;;;;;;;;;;;;;;;;;5124355;27;19916;-56
2022/06/08 04:10:15;;;;;;;;;;;;;;;;;;5145222;27;19912;-55
2022/06/08 04:12:55;;;;;;;;;;;;;;;;;;5124208;27;20336;-55
2022/06/08 04:15:44;;;;;;;;;;;;;;;;;;5103034;27;19953;-55
2022/06/08 04:18:47;;;;;;;;;;;;;;;;;;5124237;27;19916;-56
2022/06/08 04:21:27;;;;;;;;;;;;;;;;;;5124640;27;20320;-55
2022/06/08 04:24:16;;;;;;;;;;;;;;;;;;5140972;27;19923;-55
2022/06/08 04:27:00;;;;;;;;;;;;;;;;;;5122811;27;19912;-55
2022/06/08 04:29:45;;;;;;;;;;;;;;;;;;5122276;27;20369;-55
2022/06/08 04:32:25;;;;;;;;;;;;;;;;;;5103680;27;19930;-54
2022/06/08 04:35:05;;;;;;;;;;;;;;;;;;5122570;27;19920;-55
2022/06/08 04:37:47;;;;;;;;;;;;;;;;;;5116492;27;20423;-54
2022/06/08 04:40:26;;;;;;;;;;;;;;;;;;5123765;27;19924;-55
2022/06/08 04:43:06;;;;;;;;;;;;;;;;;;5123332;27;19930;-55
2022/06/08 04:45:46;;;;;;;;;;;;;;;;;;5121974;27;19915;-55
2022/06/08 04:48:26;;;;;;;;;;;;;;;;;;5123074;27;19915;-54
2022/06/08 04:51:08;;;;;;;;;;;;;;;;;;5097690;27;19973;-55
2022/06/08 04:53:47;;;;;;;;;;;;;;;;;;5123406;27;19920;-54
2022/06/08 04:56:27;;;;;;;;;;;;;;;;;;5143320;27;19911;-54
2022/06/08 04:59:09;;;;;;;;;;;;;;;;;;5111266;27;19923;-55
2022/06/08 05:01:51;;;;;;;;;;;;;;;;;;5108539;27;19969;-54
2022/06/08 05:04:31;;;;;;;;;;;;;;;;;;5103321;27;19920;-54
2022/06/08 05:07:11;;;;;;;;;;;;;;;;;;5122040;27;19923;-55
2022/06/08 05:09:50;;;;;;;;;;;;;;;;;;5101025;27;20359;-54
2022/06/08 05:12:30;;;;;;;;;;;;;;;;;;5124528;27;19911;-54
2022/06/08 05:15:10;;;;;;;;;;;;;;;;;;5123188;27;20385;-55
2022/06/08 05:17:50;;;;;;;;;;;;;;;;;;5123205;27;19915;-55
2022/06/08 05:20:30;;;;;;;;;;;;;;;;;;5096130;27;19913;-54
2022/06/08 05:23:10;;;;;;;;;;;;;;;;;;5123771;27;19912;-55
2022/06/08 05:25:49;;;;;;;;;;;;;;;;;;5115410;27;19919;-54
2022/06/08 05:28:29;;;;;;;;;;;;;;;;;;5103757;27;20451;-55
2022/06/08 05:31:14;;;;;;;;;;;;;;;;;;5109963;27;19926;-52
2022/06/08 05:33:57;;;;;;;;;;;;;;;;;;5124216;27;19918;-54
2022/06/08 05:36:37;;;;;;;;;;;;;;;;;;5101317;27;20331;-54
2022/06/08 05:39:20;;;;;;;;;;;;;;;;;;5120419;27;19926;-54
2022/06/08 05:42:00;;;;;;;;;;;;;;;;;;5123889;27;19918;-55
2022/06/08 05:44:39;;;;;;;;;;;;;;;;;;5124537;27;19934;-54
2022/06/08 05:47:19;;;;;;;;;;;;;;;;;;5123202;27;19916;-55
2022/06/08 05:49:59;;;;;;;;;;;;;;;;;;5079565;28;19912;-54
2022/06/08 05:52:39;;;;;;;;;;;;;;;;;;5099511;27;19912;-54
2022/06/08 05:55:19;;;;;;;;;;;;;;;;;;5122787;27;19916;-54
2022/06/08 05:57:59;;;;;;;;;;;;;;;;;;5123980;27;19915;-54
2022/06/08 06:00:38;;;;;;;;;;;;;;;;;;5114507;27;19957;-54
2022/06/08 06:03:19;;;;;;;;;;;;;;;;;;5124972;27;20297;-54
2022/06/08 06:05:59;;;;;;;;;;;;;;;;;;5101228;27;20341;-54
2022/06/08 06:08:38;;;;;;;;;;;;;;;;;;5102901;27;19912;-54
2022/06/08 06:11:23;;;;;;;;;;;;;;;;;;5100452;27;19913;-54
2022/06/08 06:14:03;;;;;;;;;;;;;;;;;;5083092;28;19920;-54
2022/06/08 06:16:44;;;;;;;;;;;;;;;;;;5122851;27;20003;-55
2022/06/08 06:19:25;;;;;;;;;;;;;;;;;;5123344;27;20406;-55
2022/06/08 06:22:27;;;;;;;;;;;;;;;;;;5123153;27;19915;-55
2022/06/08 06:25:26;;;;;;;;;;;;;;;;;;5102465;27;19916;-54
2022/06/08 06:28:16;;;;;;;;;;;;;;;;;;5124446;27;19911;-55
2022/06/08 06:31:15;;;;;;;;;;;;;;;;;;5161948;22;19965;-57
2022/06/08 06:34:06;;;;;;;;;;;;;;;;;;5102226;27;20202;-58
2022/06/08 06:36:46;;;;;;;;;;;;;;;;;;5120648;27;19911;-59
2022/06/08 06:39:26;;;;;;;;;;;;;;;;;;5124241;27;19945;-57
2022/06/08 06:42:10;;;;;;;;;;;;;;;;;;5112909;27;20609;-56
2022/06/08 06:44:52;;;;;;;;;;;;;;;;;;5103741;27;19982;-59
2022/06/08 06:47:44;;;;;;;;;;;;;;;;;;5124054;27;19912;-58
2022/06/08 06:50:34;;;;;;;;;;;;;;;;;;5118036;27;19934;-57
2022/06/08 06:53:14;;;;;;;;;;;;;;;;;;5083907;27;19935;-58
2022/06/08 06:55:58;;;;;;;;;;;;;;;;;;5082371;28;19920;-58
2022/06/08 06:58:56;;;;;;;;;;;;;;;;;;5104285;27;20298;-61
2022/06/08 07:01:37;;;;;;;;;;;;;;;;;;5123598;27;19919;-56
2022/06/08 07:04:18;;;;;;;;;;;;;;;;;;5123806;27;19916;-57
2022/06/08 07:06:57;;;;;;;;;;;;;;;;;;5122596;27;20335;-56
2022/06/08 07:09:37;;;;;;;;;;;;;;;;;;5124442;27;20399;-59
2022/06/08 07:12:16;;;;;;;;;;;;;;;;;;5109313;27;19916;-58
2022/06/08 07:15:03;;;;;;;;;;;;;;;;;;5123024;27;20339;-60
2022/06/08 07:17:42;;;;;;;;;;;;;;;;;;5123201;27;19916;-61
2022/06/08 07:20:23;;;;;;;;;;;;;;;;;;5122741;27;19920;-56
2022/06/08 07:23:02;;;;;;;;;;;;;;;;;;5123453;27;19912;-55
2022/06/08 07:25:42;;;;;;;;;;;;;;;;;;5101612;27;19973;-56
2022/06/08 07:28:22;;;;;;;;;;;;;;;;;;5102121;27;20446;-59
2022/06/08 07:31:02;;;;;;;;;;;;;;;;;;5122615;27;20374;-60
2022/06/08 07:33:41;;;;;;;;;;;;;;;;;;5102692;27;19926;-57
2022/06/08 07:36:21;;;;;;;;;;;;;;;;;;5121885;27;19925;-60
2022/06/08 07:39:01;;;;;;;;;;;;;;;;;;5122665;27;19927;-56
2022/06/08 07:41:42;;;;;;;;;;;;;;;;;;5107105;27;19916;-57
2022/06/08 07:44:21;;;;;;;;;;;;;;;;;;5123096;27;19949;-58
2022/06/08 07:47:01;;;;;;;;;;;;;;;;;;5121755;27;19912;-57
2022/06/08 07:49:41;;;;;;;;;;;;;;;;;;5123416;27;19912;-59
2022/06/08 07:52:20;;;;;;;;;;;;;;;;;;5123660;27;19912;-60
2022/06/08 07:55:00;;;;;;;;;;;;;;;;;;5123018;27;19911;-61
2022/06/08 07:57:40;;;;;;;;;;;;;;;;;;5122680;27;19912;-60
2022/06/08 08:00:20;;;;;;;;;;;;;;;;;;5123352;27;20381;-58
2022/06/08 08:02:59;;;;;;;;;;;;;;;;;;5102284;27;20207;-57
2022/06/08 08:05:39;;;;;;;;;;;;;;;;;;5099307;27;19929;-60
2022/06/08 08:08:19;;;;;;;;;;;;;;;;;;5118635;27;19915;-56
2022/06/08 08:10:59;;;;;;;;;;;;;;;;;;5118485;27;19916;-59
2022/06/08 08:13:39;;;;;;;;;;;;;;;;;;5086497;27;20344;-60
2022/06/08 08:16:19;;;;;;;;;;;;;;;;;;5096148;27;19930;-59
2022/06/08 08:18:58;;;;;;;;;;;;;;;;;;5082313;28;19913;-57
2022/06/08 08:21:38;;;;;;;;;;;;;;;;;;5067438;28;19917;-57
2022/06/08 08:24:18;;;;;;;;;;;;;;;;;;5124693;27;19915;-57
2022/06/08 08:26:58;;;;;;;;;;;;;;;;;;5123147;27;19916;-57
2022/06/08 08:29:38;;;;;;;;;;;;;;;;;;5124792;27;20380;-57
2022/06/08 08:32:18;;;;;;;;;;;;;;;;;;5145732;27;19915;-58
2022/06/08 08:34:57;;;;;;;;;;;;;;;;;;5123959;27;19916;-60
2022/06/08 08:37:37;;;;;;;;;;;;;;;;;;5103882;27;19946;-61
2022/06/08 08:40:17;;;;;;;;;;;;;;;;;;5121271;27;19916;-59
2022/06/08 08:42:57;;;;;;;;;;;;;;;;;;5124900;27;20372;-56
2022/06/08 08:45:37;;;;;;;;;;;;;;;;;;5103903;27;19916;-55
2022/06/08 08:48:19;;;;;;;;;;;;;;;;;;5104200;27;20319;-55
2022/06/08 08:51:00;;;;;;;;;;;;;;;;;;5094131;27;19931;-61
2022/06/08 08:53:39;;;;;;;;;;;;;;;;;;5124319;27;19912;-56
2022/06/08 08:56:19;;;;;;;;;;;;;;;;;;5123628;27;19911;-55
2022/06/08 08:59:00;;;;;;;;;;;;;;;;;;5124192;27;19915;-57
2022/06/08 09:01:39;;;;;;;;;;;;;;;;;;5124567;27;20397;-59
2022/06/08 09:04:19;;;;;;;;;;;;;;;;;;5124507;27;20285;-58
2022/06/08 09:06:59;;;;;;;;;;;;;;;;;;5123305;27;19915;-59
2022/06/08 09:09:38;;;;;;;;;;;;;;;;;;5124716;27;19911;-58
2022/06/08 09:12:30;;;;;;;;;;;;;;;;;;5123899;27;19912;-57
2022/06/08 09:15:10;;;;;;;;;;;;;;;;;;5123289;27;19919;-59
2022/06/08 09:17:50;;;;;;;;;;;;;;;;;;5123966;27;20392;-60
2022/06/08 09:20:30;;;;;;;;;;;;;;;;;;5125107;27;19922;-61
2022/06/08 09:23:09;;;;;;;;;;;;;;;;;;5124420;27;19915;-59
2022/06/08 09:25:49;;;;;;;;;;;;;;;;;;5123938;27;20122;-59
2022/06/08 09:28:29;;;;;;;;;;;;;;;;;;5103748;27;20324;-61
2022/06/08 09:31:09;;;;;;;;;;;;;;;;;;5113138;27;20169;-59
2022/06/08 09:33:49;;;;;;;;;;;;;;;;;;5124524;27;19912;-58
2022/06/08 09:36:28;;;;;;;;;;;;;;;;;;5123342;27;19918;-56
2022/06/08 09:39:08;;;;;;;;;;;;;;;;;;5123996;27;19918;-57
2022/06/08 09:41:48;;;;;;;;;;;;;;;;;;5124859;27;19916;-59
2022/06/08 09:44:28;;;;;;;;;;;;;;;;;;5124687;27;19919;-57
2022/06/08 09:52:59;;;;;;;;;;;;;;;;;;5124679;27;20298;-55
2022/06/08 09:55:39;;;;;;;;;;;;;;;;;;5123546;27;19912;-56
2022/06/08 09:58:20;;;;;;;;;;;;;;;;;;5124441;27;19912;-57
2022/06/08 10:00:59;;;;;;;;;;;;;;;;;;5114855;27;19912;-58
2022/06/08 10:03:39;;;;;;;;;;;;;;;;;;5124933;27;19916;-57
2022/06/08 10:06:19;;;;;;;;;;;;;;;;;;5103391;27;19923;-58
2022/06/08 10:08:58;;;;;;;;;;;;;;;;;;5124366;27;20376;-58
2022/06/08 10:11:39;;;;;;;;;;;;;;;;;;5124521;27;19926;-60
2022/06/08 10:14:19;;;;;;;;;;;;;;;;;;5125046;27;19912;-56
2022/06/08 10:16:58;;;;;;;;;;;;;;;;;;5123415;27;19922;-56
2022/06/08 10:19:38;;;;;;;;;;;;;;;;;;5103781;27;20326;-57
2022/06/08 10:22:18;;;;;;;;;;;;;;;;;;5104444;27;20393;-59
2022/06/08 10:24:58;;;;;;;;;;;;;;;;;;5124142;27;20478;-57
2022/06/08 10:27:37;;;;;;;;;;;;;;;;;;5124915;27;19915;-57
2022/06/08 10:30:17;;;;;;;;;;;;;;;;;;5121080;27;19912;-58
2022/06/08 10:32:59;;;;;;;;;;;;;;;;;;5104418;27;19926;-57
2022/06/08 10:35:41;;;;;;;;;;;;;;;;;;5123927;27;20119;-56
2022/06/08 10:38:20;;;;;;;;;;;;;;;;;;5104378;27;20434;-57
2022/06/08 10:41:00;;;;;;;;;;;;;;;;;;5115120;27;20380;-56
2022/06/08 10:43:39;;;;;;;;;;;;;;;;;;5125438;27;19912;-59
2022/06/08 10:46:19;;;;;;;;;;;;;;;;;;5123765;27;19912;-60
2022/06/08 10:48:59;;;;;;;;;;;;;;;;;;5124744;27;19912;-59
2022/06/08 10:51:41;;;;;;;;;;;;;;;;;;5124402;27;20346;-57
2022/06/08 10:57:18;;;;;;;;;;;;;;;;;;5123363;27;19912;-60
2022/06/08 10:59:57;;;;;;;;;;;;;;;;;;5145686;27;19911;-56
2022/06/08 11:02:38;;;;;;;;;;;;;;;;;;5104643;27;20331;-57
2022/06/08 11:05:19;;;;;;;;;;;;;;;;;;5123838;27;19915;-58
2022/06/08 11:07:59;;;;;;;;;;;;;;;;;;5124341;27;19912;-58
2022/06/08 11:10:38;;;;;;;;;;;;;;;;;;5117904;27;20377;-57
2022/06/08 11:13:18;;;;;;;;;;;;;;;;;;5124528;27;20390;-58
2022/06/08 11:15:58;;;;;;;;;;;;;;;;;;5123404;27;19918;-61
2022/06/08 11:18:41;;;;;;;;;;;;;;;;;;5123594;27;19920;-56
2022/06/08 11:21:19;;;;;;;;;;;;;;;;;;5111424;27;20389;-56
2022/06/08 11:23:59;;;;;;;;;;;;;;;;;;5124394;27;19911;-58
2022/06/08 11:26:39;;;;;;;;;;;;;;;;;;5123722;27;19912;-56
2022/06/08 11:29:20;;;;;;;;;;;;;;;;;;5104064;27;19953;-59
2022/06/08 11:32:00;;;;;;;;;;;;;;;;;;5124306;27;19912;-59
2022/06/08 11:34:40;;;;;;;;;;;;;;;;;;5124286;27;19912;-56
2022/06/08 11:37:20;;;;;;;;;;;;;;;;;;5102608;27;20215;-58
2022/06/08 11:40:00;;;;;;;;;;;;;;;;;;5124197;27;20192;-57
2022/06/08 11:42:40;;;;;;;;;;;;;;;;;;5124777;27;20327;-57
2022/06/08 11:45:20;;;;;;;;;;;;;;;;;;5102930;27;20373;-57
2022/06/08 11:47:59;;;;;;;;;;;;;;;;;;5103954;27;19926;-59
2022/06/08 11:50:39;;;;;;;;;;;;;;;;;;5124329;27;19924;-60
2022/06/08 11:53:19;;;;;;;;;;;;;;;;;;5124730;27;19952;-59
2022/06/08 11:55:59;;;;;;;;;;;;;;;;;;5103119;27;20200;-62
2022/06/08 11:58:39;;;;;;;;;;;;;;;;;;5145450;27;19911;-57
2022/06/08 12:01:18;;;;;;;;;;;;;;;;;;5124604;27;20292;-56
2022/06/08 12:03:58;;;;;;;;;;;;;;;;;;5125084;27;19918;-57
2022/06/08 12:06:38;;;;;;;;;;;;;;;;;;5144934;27;19911;-58
2022/06/08 12:09:19;;;;;;;;;;;;;;;;;;5124580;27;19916;-59
2022/06/08 12:11:58;;;;;;;;;;;;;;;;;;5104706;27;20278;-58
2022/06/08 12:14:37;;;;;;;;;;;;;;;;;;5125372;27;19918;-56
2022/06/08 12:17:17;;;;;;;;;;;;;;;;;;5103355;27;19926;-57
2022/06/08 12:19:57;;;;;;;;;;;;;;;;;;5102968;27;19916;-55
2022/06/08 12:22:38;;;;;;;;;;;;;;;;;;5083839;28;19912;-57
2022/06/08 12:25:17;;;;;;;;;;;;;;;;;;5123778;27;20319;-58
2022/06/08 12:27:57;;;;;;;;;;;;;;;;;;5124229;27;19912;-58
2022/06/08 12:30:37;;;;;;;;;;;;;;;;;;5124602;27;19912;-60
2022/06/08 12:33:17;;;;;;;;;;;;;;;;;;5153726;22;20338;-55
2022/06/08 12:35:56;;;;;;;;;;;;;;;;;;5123519;27;19984;-55
2022/06/08 12:38:36;;;;;;;;;;;;;;;;;;5144530;27;19912;-55
2022/06/08 12:41:16;;;;;;;;;;;;;;;;;;5145154;27;19912;-55
2022/06/08 12:43:56;;;;;;;;;;;;;;;;;;5103474;27;19912;-54
2022/06/08 12:46:35;;;;;;;;;;;;;;;;;;5123202;27;19911;-54
2022/06/08 12:49:15;;;;;;;;;;;;;;;;;;5145133;27;19912;-54
2022/06/08 12:51:55;;;;;;;;;;;;;;;;;;5123468;27;20377;-54
2022/06/08 12:54:36;;;;;;;;;;;;;;;;;;5124047;27;19915;-54
2022/06/08 12:57:16;;;;;;;;;;;;;;;;;;5102938;27;19916;-54
2022/06/08 12:59:55;;;;;;;;;;;;;;;;;;5124376;27;19912;-54
2022/06/08 13:02:35;;;;;;;;;;;;;;;;;;5093113;27;19962;-53
2022/06/08 13:05:14;;;;;;;;;;;;;;;;;;5143647;27;20322;-55
2022/06/08 13:07:55;;;;;;;;;;;;;;;;;;5123760;27;19912;-54
2022/06/08 13:10:34;;;;;;;;;;;;;;;;;;5124356;27;19916;-54
2022/06/08 13:13:14;;;;;;;;;;;;;;;;;;5107635;27;19922;-55
2022/06/08 13:15:54;;;;;;;;;;;;;;;;;;5123418;27;19915;-54
2022/06/08 13:18:35;;;;;;;;;;;;;;;;;;5124560;27;19912;-54
2022/06/08 13:21:15;;;;;;;;;;;;;;;;;;5124233;27;19916;-55
2022/06/08 13:23:55;;;;;;;;;;;;;;;;;;5124192;27;19923;-54
2022/06/08 13:26:35;;;;;;;;;;;;;;;;;;5102630;27;19916;-54
2022/06/08 13:29:16;;;;;;;;;;;;;;;;;;5103877;27;19920;-55
2022/06/08 13:31:56;;;;;;;;;;;;;;;;;;5118339;27;19912;-54
2022/06/08 13:34:36;;;;;;;;;;;;;;;;;;5124795;27;19911;-54
2022/06/08 13:37:15;;;;;;;;;;;;;;;;;;5141723;27;19919;-54
2022/06/08 13:39:57;;;;;;;;;;;;;;;;;;5122956;27;19920;-54
2022/06/08 13:42:37;;;;;;;;;;;;;;;;;;5091445;27;19924;-54
2022/06/08 13:45:16;;;;;;;;;;;;;;;;;;5123050;27;19916;-53
2022/06/08 13:47:56;;;;;;;;;;;;;;;;;;5103764;27;20372;-53
2022/06/08 13:50:37;;;;;;;;;;;;;;;;;;5151511;27;19915;-54
2022/06/08 13:53:16;;;;;;;;;;;;;;;;;;5144484;27;19916;-54
2022/06/08 13:55:56;;;;;;;;;;;;;;;;;;5102544;27;19950;-54
2022/06/08 13:58:36;;;;;;;;;;;;;;;;;;5124329;27;20321;-54
2022/06/08 14:01:15;;;;;;;;;;;;;;;;;;5103757;27;20300;-54
2022/06/08 14:03:55;;;;;;;;;;;;;;;;;;5125043;27;19911;-54
2022/06/08 14:15:39;;;;;;;;;;;;;;;;;;5122345;27;19915;-54
2022/06/08 14:18:18;;;;;;;;;;;;;;;;;;5120102;27;20436;-54
2022/06/08 14:20:58;;;;;;;;;;;;;;;;;;5122597;27;19915;-54
2022/06/08 14:23:38;;;;;;;;;;;;;;;;;;5103740;27;20240;-54
2022/06/08 14:26:18;;;;;;;;;;;;;;;;;;5123138;27;19919;-54
2022/06/08 14:28:58;;;;;;;;;;;;;;;;;;5124482;27;19915;-54
2022/06/08 14:31:37;;;;;;;;;;;;;;;;;;5100725;27;20545;-54
2022/06/08 14:34:18;;;;;;;;;;;;;;;;;;5124693;27;20013;-54
2022/06/08 14:36:57;;;;;;;;;;;;;;;;;;5123629;27;19912;-54
2022/06/08 14:39:37;;;;;;;;;;;;;;;;;;5104374;27;19912;-54
2022/06/08 14:42:17;;;;;;;;;;;;;;;;;;5124411;27;19912;-54
2022/06/08 14:44:58;;;;;;;;;;;;;;;;;;5104083;27;20434;-54
2022/06/08 14:47:39;;;;;;;;;;;;;;;;;;5103856;27;19913;-54
2022/06/08 14:50:19;;;;;;;;;;;;;;;;;;5124394;27;19915;-54
2022/06/08 14:52:58;;;;;;;;;;;;;;;;;;5109918;27;19916;-55
2022/06/08 14:58:37;;;;;;;;;;;;;;;;;;5129545;27;19912;-54
2022/06/08 15:01:19;;;;;;;;;;;;;;;;;;5087383;28;19912;-54
2022/06/08 15:04:01;;;;;;;;;;;;;;;;;;5104103;27;19912;-55
2022/06/08 15:06:39;;;;;;;;;;;;;;;;;;5123527;27;20369;-54
2022/06/08 15:09:19;;;;;;;;;;;;;;;;;;5123984;27;19919;-54
2022/06/08 15:11:59;;;;;;;;;;;;;;;;;;5117825;27;19918;-56
2022/06/08 15:14:40;;;;;;;;;;;;;;;;;;5121715;27;20080;-55
2022/06/08 15:17:19;;;;;;;;;;;;;;;;;;5139744;27;19918;-55
2022/06/08 15:19:58;;;;;;;;;;;;;;;;;;5124227;27;20362;-55
2022/06/08 15:22:38;;;;;;;;;;;;;;;;;;5124072;27;19915;-55
2022/06/08 15:25:18;;;;;;;;;;;;;;;;;;5123089;27;19916;-55
2022/06/08 15:27:58;;;;;;;;;;;;;;;;;;5122753;27;19912;-53
2022/06/08 15:30:38;;;;;;;;;;;;;;;;;;5153568;27;19915;-54
2022/06/08 15:33:18;;;;;;;;;;;;;;;;;;5124550;27;19916;-54
2022/06/08 15:35:57;;;;;;;;;;;;;;;;;;5122536;27;19916;-55
2022/06/08 15:38:37;;;;;;;;;;;;;;;;;;5123427;27;19911;-55
2022/06/08 15:41:17;;;;;;;;;;;;;;;;;;5124535;27;19922;-54
2022/06/08 15:43:57;;;;;;;;;;;;;;;;;;5124443;27;19919;-54
2022/06/08 15:46:37;;;;;;;;;;;;;;;;;;5120683;27;19916;-54
2022/06/08 15:49:17;;;;;;;;;;;;;;;;;;5122350;27;20323;-54
2022/06/08 15:51:56;;;;;;;;;;;;;;;;;;5116146;27;19912;-54
2022/06/08 15:54:36;;;;;;;;;;;;;;;;;;5102178;27;19923;-55
2022/06/08 15:57:16;;;;;;;;;;;;;;;;;;5121774;27;20153;-54
2022/06/08 15:59:56;;;;;;;;;;;;;;;;;;5100714;27;19969;-54
2022/06/08 16:02:36;;;;;;;;;;;;;;;;;;5110694;27;20328;-54
2022/06/08 16:05:16;;;;;;;;;;;;;;;;;;5128471;27;19919;-54
2022/06/08 16:07:55;;;;;;;;;;;;;;;;;;5121105;27;19916;-54
2022/06/08 16:10:35;;;;;;;;;;;;;;;;;;5122791;27;19915;-54
2022/06/08 16:13:15;;;;;;;;;;;;;;;;;;5101782;27;19969;-54
2022/06/08 16:15:57;;;;;;;;;;;;;;;;;;5099442;27;19930;-55
2022/06/08 16:18:36;;;;;;;;;;;;;;;;;;5102591;27;19954;-54
2022/06/08 16:21:16;;;;;;;;;;;;;;;;;;5104525;27;19918;-54
2022/06/08 16:23:56;;;;;;;;;;;;;;;;;;5102396;27;19916;-54
2022/06/08 16:26:36;;;;;;;;;;;;;;;;;;5121680;27;20298;-55
2022/06/08 16:29:16;;;;;;;;;;;;;;;;;;5128709;27;19916;-55
2022/06/08 16:31:56;;;;;;;;;;;;;;;;;;5122792;27;19912;-55
2022/06/08 16:34:36;;;;;;;;;;;;;;;;;;5122078;27;19920;-55
2022/06/08 16:37:15;;;;;;;;;;;;;;;;;;5132258;27;20073;-54
2022/06/08 16:39:55;;;;;;;;;;;;;;;;;;5122872;27;20376;-54
2022/06/08 16:42:35;;;;;;;;;;;;;;;;;;5096474;27;19930;-55
2022/06/08 16:45:14;;;;;;;;;;;;;;;;;;5121108;27;19930;-55
2022/06/08 16:47:54;;;;;;;;;;;;;;;;;;5123320;27;19919;-54
2022/06/08 16:50:34;;;;;;;;;;;;;;;;;;5083212;28;19912;-54
2022/06/08 16:53:14;;;;;;;;;;;;;;;;;;5107585;27;19950;-54
2022/06/08 16:55:54;;;;;;;;;;;;;;;;;;5122942;27;19930;-54
2022/06/08 17:01:29;;;;;;;;;;;;;;;;;;5145098;27;19911;-54
2022/06/08 17:04:09;;;;;;;;;;;;;;;;;;5123928;27;19916;-54
2022/06/08 17:06:50;;;;;;;;;;;;;;;;;;5102473;27;19954;-54
2022/06/08 17:09:29;;;;;;;;;;;;;;;;;;5123599;27;19911;-54
2022/06/08 17:12:09;;;;;;;;;;;;;;;;;;5096240;27;20444;-54
2022/06/08 17:14:49;;;;;;;;;;;;;;;;;;5081761;28;19912;-55
2022/06/08 17:17:28;;;;;;;;;;;;;;;;;;5122511;27;19912;-54
2022/06/08 17:20:08;;;;;;;;;;;;;;;;;;5125283;27;19916;-54
2022/06/08 17:22:48;;;;;;;;;;;;;;;;;;5110919;27;19916;-54
2022/06/08 17:25:28;;;;;;;;;;;;;;;;;;5122964;27;19918;-54
2022/06/08 17:28:08;;;;;;;;;;;;;;;;;;5123760;27;20377;-54
2022/06/08 17:30:48;;;;;;;;;;;;;;;;;;5122920;27;19918;-55
2022/06/08 17:33:27;;;;;;;;;;;;;;;;;;5124296;27;19916;-54
2022/06/08 17:36:07;;;;;;;;;;;;;;;;;;5123422;27;19915;-54
2022/06/08 17:38:47;;;;;;;;;;;;;;;;;;5102751;27;19927;-54
2022/06/08 17:41:29;;;;;;;;;;;;;;;;;;5124755;27;20411;-54
2022/06/08 17:44:08;;;;;;;;;;;;;;;;;;5123335;27;20384;-54
2022/06/08 17:46:48;;;;;;;;;;;;;;;;;;5123099;27;19911;-54
2022/06/08 17:49:28;;;;;;;;;;;;;;;;;;5124261;27;20311;-54
2022/06/08 17:52:08;;;;;;;;;;;;;;;;;;5076119;28;19917;-54
2022/06/08 17:54:48;;;;;;;;;;;;;;;;;;5124602;27;19915;-54
2022/06/08 17:57:27;;;;;;;;;;;;;;;;;;5152086;27;19911;-54
2022/06/08 18:00:07;;;;;;;;;;;;;;;;;;5106373;27;19916;-54
2022/06/08 18:02:47;;;;;;;;;;;;;;;;;;5124235;27;20288;-52
2022/06/08 18:05:27;;;;;;;;;;;;;;;;;;5123368;27;19916;-54
2022/06/08 18:08:07;;;;;;;;;;;;;;;;;;5124272;27;19916;-53
2022/06/08 18:10:47;;;;;;;;;;;;;;;;;;5123734;27;19920;-54
2022/06/08 18:13:26;;;;;;;;;;;;;;;;;;5099581;27;19946;-54
2022/06/08 18:16:06;;;;;;;;;;;;;;;;;;5121754;27;19916;-54
2022/06/08 18:18:46;;;;;;;;;;;;;;;;;;5123756;27;19912;-54
2022/06/08 18:21:26;;;;;;;;;;;;;;;;;;5082487;28;19912;-54
2022/06/08 18:24:06;;;;;;;;;;;;;;;;;;5124870;27;19919;-54
2022/06/08 18:26:46;;;;;;;;;;;;;;;;;;5123842;27;19946;-54
2022/06/08 18:29:25;;;;;;;;;;;;;;;;;;5141842;27;19915;-54
2022/06/08 18:32:05;;;;;;;;;;;;;;;;;;5142964;22;21505;-56
2022/06/08 18:34:45;;;;;;;;;;;;;;;;;;5124800;27;19953;-57
2022/06/08 18:37:25;;;;;;;;;;;;;;;;;;5104126;27;19965;-56
2022/06/08 18:40:05;;;;;;;;;;;;;;;;;;5104034;27;19926;-57
2022/06/08 18:42:44;;;;;;;;;;;;;;;;;;5120816;27;19912;-56